createdAt,value
2018-12-13T00:00:44.301Z,99529.08
2018-12-13T00:03:12.670Z,99527.84
2018-12-13T00:05:41.023Z,99524.89
2018-12-13T00:08:09.441Z,99521.51
2018-12-13T00:10:37.773Z,99527.31
2018-12-13T00:13:06.398Z,99528.42
2018-12-13T00:15:34.739Z,99524.47
2018-12-13T00:18:03.047Z,99517.96
2018-12-13T00:20:31.426Z,99520.55
2018-12-13T00:22:59.803Z,99514.22
2018-12-13T00:25:28.132Z,99522.25
2018-12-13T00:27:56.453Z,99521.34
2018-12-13T00:30:24.750Z,99522.20
2018-12-13T00:32:53.302Z,99520.98
2018-12-13T00:35:21.645Z,99516.80
2018-12-13T00:37:50.069Z,99514.50
2018-12-13T00:40:18.421Z,99517.45
2018-12-13T00:42:46.931Z,99517.01
2018-12-13T00:45:15.266Z,99519.09
2018-12-13T00:47:43.677Z,99516.34
2018-12-13T00:50:12.064Z,99518.23
2018-12-13T00:52:40.434Z,99521.47
2018-12-13T00:55:08.882Z,99518.05
2018-12-13T00:57:37.285Z,99513.31
2018-12-13T01:00:06.713Z,99514.47
2018-12-13T01:02:35.194Z,99511.00
2018-12-13T01:05:03.647Z,99508.27
2018-12-13T01:07:32.024Z,99507.88
2018-12-13T01:10:00.363Z,99503.53
2018-12-13T01:12:28.688Z,99506.43
2018-12-13T01:14:56.978Z,99509.32
2018-12-13T01:17:25.456Z,99508.63
2018-12-13T01:19:53.773Z,99505.55
2018-12-13T01:22:22.093Z,99510.80
2018-12-13T01:24:50.424Z,99504.75
2018-12-13T01:27:18.841Z,99506.79
2018-12-13T01:29:47.180Z,99500.09
2018-12-13T01:32:15.596Z,99500.97
2018-12-13T01:34:43.933Z,99500.81
2018-12-13T01:37:12.289Z,99496.14
2018-12-13T01:39:40.559Z,99487.82
2018-12-13T01:42:08.871Z,99487.24
2018-12-13T01:44:37.221Z,99490.47
2018-12-13T01:47:05.627Z,99481.13
2018-12-13T01:49:34.054Z,99480.48
2018-12-13T01:52:02.483Z,99476.21
2018-12-13T01:54:30.891Z,99471.81
2018-12-13T01:56:59.212Z,99475.35
2018-12-13T01:59:27.537Z,99474.28
2018-12-13T02:01:55.993Z,99477.59
2018-12-13T02:04:24.413Z,99489.13
2018-12-13T02:06:58.682Z,99485.39
2018-12-13T02:09:26.080Z,99484.63
2018-12-13T02:11:54.421Z,99482.29
2018-12-13T02:14:22.882Z,99482.91
2018-12-13T02:16:51.467Z,99483.47
2018-12-13T02:19:20.401Z,99476.45
2018-12-13T02:21:48.752Z,99477.64
2018-12-13T02:24:17.025Z,99479.31
2018-12-13T02:26:45.569Z,99477.23
2018-12-13T02:29:14.490Z,99478.59
2018-12-13T02:31:45.447Z,99469.44
2018-12-13T02:34:14.457Z,99473.21
2018-12-13T02:36:44.359Z,99477.66
2018-12-13T02:39:12.827Z,99474.06
2018-12-13T02:41:41.236Z,99474.17
2018-12-13T02:44:09.599Z,99465.91
2018-12-13T02:46:37.942Z,99467.91
2018-12-13T02:49:08.814Z,99468.09
2018-12-13T02:51:37.167Z,99464.62
2018-12-13T02:54:05.584Z,99460.84
2018-12-13T02:56:33.948Z,99455.78
2018-12-13T02:59:02.450Z,99456.41
2018-12-13T03:01:30.777Z,99453.95
2018-12-13T03:03:59.172Z,99454.99
2018-12-13T03:06:27.465Z,99449.91
2018-12-13T03:08:55.936Z,99456.06
2018-12-13T03:11:24.400Z,99453.24
2018-12-13T03:13:52.808Z,99452.18
2018-12-13T03:16:21.329Z,99451.42
2018-12-13T03:18:49.733Z,99450.63
2018-12-13T03:21:18.084Z,99445.29
2018-12-13T03:23:46.514Z,99449.59
2018-12-13T03:26:14.847Z,99445.31
2018-12-13T03:28:43.286Z,99450.97
2018-12-13T03:31:11.602Z,99439.88
2018-12-13T03:33:39.897Z,99445.91
2018-12-13T03:36:08.234Z,99448.17
2018-12-13T03:38:36.525Z,99441.77
2018-12-13T03:41:04.851Z,99443.06
2018-12-13T03:43:33.229Z,99435.69
2018-12-13T03:46:01.565Z,99434.97
2018-12-13T03:48:29.969Z,99426.66
2018-12-13T03:50:58.378Z,99433.09
2018-12-13T03:53:26.724Z,99432.20
2018-12-13T03:55:55.083Z,99430.32
2018-12-13T03:58:23.434Z,99428.73
2018-12-13T04:00:51.851Z,99420.53
2018-12-13T04:03:20.137Z,99422.64
2018-12-13T04:05:48.529Z,99421.64
2018-12-13T04:08:16.854Z,99417.55
2018-12-13T04:10:45.183Z,99417.62
2018-12-13T04:13:13.549Z,99417.84
2018-12-13T04:15:41.928Z,99411.23
2018-12-13T04:18:10.268Z,99412.63
2018-12-13T04:20:38.681Z,99409.47
2018-12-13T04:23:07.044Z,99414.48
2018-12-13T04:25:35.449Z,99411.91
2018-12-13T04:28:04.916Z,99415.80
2018-12-13T04:30:33.254Z,99412.16
2018-12-13T04:33:01.521Z,99411.86
2018-12-13T04:35:29.874Z,99405.42
2018-12-13T04:37:58.201Z,99405.08
2018-12-13T04:40:26.785Z,99395.05
2018-12-13T04:42:55.172Z,99403.17
2018-12-13T04:45:23.457Z,99397.73
2018-12-13T04:47:51.846Z,99397.34
2018-12-13T04:50:20.208Z,99396.81
2018-12-13T04:52:48.526Z,99388.55
2018-12-13T04:55:17.080Z,99384.76
2018-12-13T04:57:45.457Z,99385.27
2018-12-13T05:00:14.028Z,99392.78
2018-12-13T05:02:42.455Z,99391.93
2018-12-13T05:05:10.777Z,99396.44
2018-12-13T05:07:41.844Z,99397.41
2018-12-13T05:10:11.737Z,99397.39
2018-12-13T05:12:40.153Z,99395.02
2018-12-13T05:15:08.517Z,99399.34
2018-12-13T05:17:36.811Z,99397.00
2018-12-13T05:20:05.581Z,99405.95
2018-12-13T05:22:33.910Z,99398.70
2018-12-13T05:25:02.268Z,99398.03
2018-12-13T05:27:30.567Z,99396.88
2018-12-13T05:29:59.213Z,99396.72
2018-12-13T05:32:27.556Z,99387.48
2018-12-13T05:34:56.030Z,99391.89
2018-12-13T05:37:24.409Z,99395.02
2018-12-13T05:39:52.846Z,99399.61
2018-12-13T05:42:21.243Z,99397.29
2018-12-13T05:44:49.640Z,99400.48
2018-12-13T05:47:17.986Z,99400.29
2018-12-13T05:49:46.300Z,99398.72
2018-12-13T05:52:14.612Z,99399.70
2018-12-13T05:54:43.162Z,99395.43
2018-12-13T05:57:11.469Z,99396.73
2018-12-13T05:59:39.812Z,99393.41
2018-12-13T06:02:08.188Z,99398.97
2018-12-13T06:04:36.545Z,99392.05
2018-12-13T06:07:04.874Z,99400.30
2018-12-13T06:09:33.275Z,99396.64
2018-12-13T06:12:01.684Z,99393.35
2018-12-13T06:14:30.050Z,99386.00
2018-12-13T06:16:58.596Z,99395.39
2018-12-13T06:19:27.051Z,99397.34
2018-12-13T06:21:55.462Z,99384.21
2018-12-13T06:24:23.857Z,99393.73
2018-12-13T06:26:52.278Z,99387.77
2018-12-13T06:29:20.846Z,99391.61
2018-12-13T06:31:49.168Z,99386.27
2018-12-13T06:34:17.465Z,99383.48
2018-12-13T06:36:45.771Z,99386.60
2018-12-13T06:39:14.121Z,99387.30
2018-12-13T06:41:42.641Z,99391.23
2018-12-13T06:44:11.115Z,99389.18
2018-12-13T06:46:39.521Z,99398.01
2018-12-13T06:49:08.055Z,99394.88
2018-12-13T06:51:36.361Z,99401.13
2018-12-13T06:54:05.065Z,99399.46
2018-12-13T06:56:33.372Z,99404.12
2018-12-13T06:59:01.822Z,99399.60
2018-12-13T07:01:30.233Z,99402.72
2018-12-13T07:03:58.517Z,99399.25
2018-12-13T07:06:26.842Z,99392.27
2018-12-13T07:08:56.262Z,99391.36
2018-12-13T07:11:24.715Z,99393.06
2018-12-13T07:13:53.422Z,99388.17
2018-12-13T07:16:22.267Z,99385.45
2018-12-13T07:18:50.564Z,99384.11
2018-12-13T07:21:18.919Z,99383.25
2018-12-13T07:23:47.385Z,99386.58
2018-12-13T07:26:17.142Z,99381.17
2018-12-13T07:28:46.546Z,99377.79
2018-12-13T07:31:16.302Z,99377.06
2018-12-13T07:33:44.668Z,99390.34
2018-12-13T07:36:13.155Z,99381.32
2018-12-13T07:38:41.461Z,99381.32
2018-12-13T07:41:09.841Z,99375.39
2018-12-13T07:43:38.223Z,99382.00
2018-12-13T07:46:06.690Z,99382.91
2018-12-13T07:48:35.094Z,99373.86
2018-12-13T07:51:03.475Z,99375.36
2018-12-13T07:53:31.781Z,99378.30
2018-12-13T07:56:00.222Z,99371.59
2018-12-13T07:58:28.695Z,99374.99
2018-12-13T08:00:57.113Z,99377.53
2018-12-13T08:03:25.639Z,99372.55
2018-12-13T08:05:54.025Z,99368.84
2018-12-13T08:08:22.426Z,99371.83
2018-12-13T08:10:50.728Z,99372.31
2018-12-13T08:13:19.056Z,99380.01
2018-12-13T08:15:47.454Z,99379.09
2018-12-13T08:18:15.726Z,99374.73
2018-12-13T08:20:44.060Z,99373.35
2018-12-13T08:23:12.340Z,99366.88
2018-12-13T08:25:40.904Z,99365.88
2018-12-13T08:28:09.190Z,99376.39
2018-12-13T08:30:37.788Z,99367.97
2018-12-13T08:33:06.282Z,99380.88
2018-12-13T08:35:34.614Z,99370.80
2018-12-13T08:38:03.006Z,99377.80
2018-12-13T08:40:31.398Z,99366.99
2018-12-13T08:42:59.726Z,99379.47
2018-12-13T08:45:28.127Z,99365.49
2018-12-13T08:47:56.476Z,99365.02
2018-12-13T08:50:25.337Z,99367.91
2018-12-13T08:52:53.673Z,99364.64
2018-12-13T08:55:22.010Z,99363.33
2018-12-13T08:57:50.334Z,99361.77
2018-12-13T09:00:18.639Z,99357.81
2018-12-13T09:02:47.094Z,99366.94
2018-12-13T09:05:16.568Z,99361.33
2018-12-13T09:07:44.899Z,99364.05
2018-12-13T09:10:13.215Z,99358.20
2018-12-13T09:12:41.533Z,99363.44
2018-12-13T09:15:10.021Z,99354.88
2018-12-13T09:17:38.350Z,99363.30
2018-12-13T09:20:06.877Z,99360.58
2018-12-13T09:22:35.229Z,99368.80
2018-12-13T09:25:03.978Z,99362.00
2018-12-13T09:27:32.300Z,99363.05
2018-12-13T09:30:00.575Z,99357.11
2018-12-13T09:32:28.885Z,99353.46
2018-12-13T09:34:57.205Z,99360.81
2018-12-13T09:37:25.532Z,99357.72
2018-12-13T09:39:53.861Z,99357.33
2018-12-13T09:42:22.266Z,99356.30
2018-12-13T09:44:50.626Z,99353.34
2018-12-13T09:47:18.958Z,99349.34
2018-12-13T09:49:47.276Z,99349.53
2018-12-13T09:52:15.766Z,99348.66
2018-12-13T09:54:44.068Z,99350.87
2018-12-13T09:57:12.340Z,99348.27
2018-12-13T09:59:40.713Z,99347.68
2018-12-13T10:02:09.156Z,99347.14
2018-12-13T10:04:37.584Z,99351.16
2018-12-13T10:07:05.939Z,99344.93
2018-12-13T10:09:34.254Z,99346.95
2018-12-13T10:12:02.530Z,99345.66
2018-12-13T10:14:30.864Z,99332.97
2018-12-13T10:16:59.224Z,99330.92
2018-12-13T10:19:27.534Z,99337.84
2018-12-13T10:21:55.923Z,99332.63
2018-12-13T10:24:24.266Z,99335.55
2018-12-13T10:26:52.653Z,99326.06
2018-12-13T10:29:21.025Z,99327.52
2018-12-13T10:31:49.505Z,99329.61
2018-12-13T10:34:17.825Z,99326.66
2018-12-13T10:36:46.135Z,99331.27
2018-12-13T10:39:14.462Z,99324.05
2018-12-13T10:41:42.763Z,99325.16
2018-12-13T10:44:11.080Z,99319.34
2018-12-13T10:46:39.426Z,99314.16
2018-12-13T10:49:07.809Z,99316.22
2018-12-13T10:51:36.205Z,99317.54
2018-12-13T10:54:04.584Z,99315.77
2018-12-13T10:56:32.949Z,99315.17
2018-12-13T10:59:01.262Z,99317.66
2018-12-13T11:01:34.889Z,99317.78
2018-12-13T11:04:03.221Z,99313.31
2018-12-13T11:06:31.496Z,99305.09
2018-12-13T11:08:59.786Z,99306.80
2018-12-13T11:11:28.066Z,99298.34
2018-12-13T11:13:56.369Z,99307.05
2018-12-13T11:16:24.672Z,99305.80
2018-12-13T11:18:52.961Z,99308.94
2018-12-13T11:21:21.229Z,99303.25
2018-12-13T11:23:49.621Z,99312.34
2018-12-13T11:26:18.008Z,99304.41
2018-12-13T11:29:58.493Z,99302.15
2018-12-13T11:32:26.776Z,99295.97
2018-12-13T11:34:55.117Z,99288.01
2018-12-13T11:37:23.393Z,99290.71
2018-12-13T11:39:51.782Z,99289.86
2018-12-13T11:42:20.135Z,99290.78
2018-12-13T11:44:48.531Z,99293.55
2018-12-13T11:47:16.864Z,99293.05
2018-12-13T11:49:45.280Z,99295.51
2018-12-13T11:52:13.632Z,99293.48
2018-12-13T11:54:44.421Z,99290.71
2018-12-13T11:57:12.949Z,99285.59
2018-12-13T11:59:41.250Z,99275.86
2018-12-13T12:02:09.693Z,99275.86
2018-12-13T12:04:38.024Z,99269.83
2018-12-13T12:07:06.367Z,99271.78
2018-12-13T12:09:34.769Z,99265.35
2018-12-13T12:12:03.113Z,99265.84
2018-12-13T12:14:31.507Z,99259.17
2018-12-13T12:16:59.843Z,99261.64
2018-12-13T12:19:28.264Z,99263.68
2018-12-13T12:21:56.724Z,99261.59
2018-12-13T12:24:25.073Z,99270.17
2018-12-13T12:26:53.373Z,99264.07
2018-12-13T12:29:21.869Z,99265.92
2018-12-13T12:31:50.229Z,99262.44
2018-12-13T12:34:18.620Z,99263.51
2018-12-13T12:36:46.989Z,99259.80
2018-12-13T12:39:18.523Z,99259.98
2018-12-13T12:41:45.880Z,99259.33
2018-12-13T12:44:14.323Z,99255.79
2018-12-13T12:46:42.637Z,99254.86
2018-12-13T12:49:10.963Z,99242.69
2018-12-13T12:51:39.252Z,99246.41
2018-12-13T12:54:07.599Z,99239.59
2018-12-13T12:56:36.002Z,99238.23
2018-12-13T12:59:06.027Z,99231.31
2018-12-13T13:01:34.434Z,99226.88
2018-12-13T13:04:03.006Z,99228.69
2018-12-13T13:06:31.890Z,99221.13
2018-12-13T13:09:00.222Z,99216.05
2018-12-13T13:11:28.560Z,99209.14
2018-12-13T13:13:56.908Z,99208.06
2018-12-13T13:16:25.236Z,99215.02
2018-12-13T13:18:54.697Z,99210.12
2018-12-13T13:21:24.017Z,99213.14
2018-12-13T13:23:53.131Z,99209.55
2018-12-13T13:26:22.382Z,99207.30
2018-12-13T13:28:50.721Z,99203.48
2018-12-13T13:31:19.081Z,99208.73
2018-12-13T13:33:47.346Z,99202.66
2018-12-13T13:36:15.648Z,99198.48
2018-12-13T13:38:43.999Z,99198.67
2018-12-13T13:41:12.321Z,99192.56
2018-12-13T13:43:40.588Z,99197.70
2018-12-13T13:46:09.032Z,99198.98
2018-12-13T13:48:37.396Z,99202.47
2018-12-13T13:51:05.890Z,99201.00
2018-12-13T13:53:34.274Z,99199.55
2018-12-13T13:56:02.565Z,99199.63
2018-12-13T13:58:30.933Z,99196.80
2018-12-13T14:00:59.232Z,99199.48
2018-12-13T14:03:27.500Z,99200.39
2018-12-13T14:05:55.936Z,99200.02
2018-12-13T14:08:24.221Z,99197.69
2018-12-13T14:10:52.600Z,99197.11
2018-12-13T14:13:21.105Z,99198.34
2018-12-13T14:15:49.695Z,99191.34
2018-12-13T14:18:18.176Z,99193.59
2018-12-13T14:20:46.488Z,99195.78
2018-12-13T14:23:15.028Z,99198.88
2018-12-13T14:25:44.015Z,99205.44
2018-12-13T14:28:12.366Z,99197.77
2018-12-13T14:30:40.677Z,99204.28
2018-12-13T14:33:09.127Z,99202.19
2018-12-13T14:35:37.763Z,99201.88
2018-12-13T14:38:06.093Z,99202.10
2018-12-13T14:40:35.316Z,99201.01
2018-12-13T14:43:03.667Z,99208.37
2018-12-13T14:45:32.181Z,99195.53
2018-12-13T14:48:00.512Z,99192.43
2018-12-13T14:50:28.968Z,99208.77
2018-12-13T14:52:57.264Z,99197.30
2018-12-13T14:55:25.589Z,99203.80
2018-12-13T14:57:53.922Z,99197.77
2018-12-13T15:00:22.770Z,99200.78
2018-12-13T15:02:51.086Z,99194.36
2018-12-13T15:05:19.797Z,99190.34
2018-12-13T15:07:48.153Z,99197.47
2018-12-13T15:10:16.480Z,99193.12
2018-12-13T15:12:44.799Z,99195.06
2018-12-13T15:15:13.229Z,99196.38
2018-12-13T15:17:41.558Z,99189.49
2018-12-13T15:20:09.981Z,99194.45
2018-12-13T15:22:38.299Z,99200.56
2018-12-13T15:25:06.641Z,99200.94
2018-12-13T15:27:34.952Z,99208.45
2018-12-13T15:30:03.522Z,99199.56
2018-12-13T15:32:31.805Z,99208.21
2018-12-13T15:35:00.241Z,99208.05
2018-12-13T15:37:28.512Z,99196.23
2018-12-13T15:39:57.419Z,99202.19
2018-12-13T15:42:26.160Z,99207.56
2018-12-13T15:44:54.541Z,99208.59
2018-12-13T15:47:22.956Z,99212.86
2018-12-13T15:49:51.785Z,99210.30
2018-12-13T15:52:20.168Z,99208.98
2018-12-13T15:54:48.693Z,99212.84
2018-12-13T15:57:17.075Z,99210.67
2018-12-13T15:59:45.519Z,99206.14
2018-12-13T16:02:13.886Z,99208.16
2018-12-13T16:04:42.265Z,99204.19
2018-12-13T16:07:11.024Z,99204.97
2018-12-13T16:09:39.542Z,99202.26
2018-12-13T16:12:07.848Z,99204.01
2018-12-13T16:14:36.120Z,99202.72
2018-12-13T16:17:04.725Z,99206.52
2018-12-13T16:19:33.050Z,99207.41
2018-12-13T16:22:01.459Z,99202.62
2018-12-13T16:24:29.749Z,99198.05
2018-12-13T16:26:58.223Z,99194.83
2018-12-13T16:29:26.626Z,99195.94
2018-12-13T16:31:54.985Z,99189.97
2018-12-13T16:34:23.309Z,99191.27
2018-12-13T16:36:52.220Z,99191.97
2018-12-13T16:39:21.105Z,99191.50
2018-12-13T16:41:49.696Z,99186.23
2018-12-13T16:44:18.068Z,99176.07
2018-12-13T16:46:46.452Z,99188.10
2018-12-13T16:49:15.115Z,99187.24
2018-12-13T16:51:43.524Z,99190.05
2018-12-13T16:54:11.892Z,99186.66
2018-12-13T16:56:40.426Z,99186.00
2018-12-13T16:59:09.048Z,99186.61
2018-12-13T17:01:37.419Z,99186.81
2018-12-13T17:04:05.731Z,99188.56
2018-12-13T17:06:34.198Z,99185.16
2018-12-13T17:09:02.796Z,99183.77
2018-12-13T17:11:31.455Z,99181.52
2018-12-13T17:13:59.856Z,99182.69
2018-12-13T17:16:30.423Z,99182.66
2018-12-13T17:18:58.889Z,99179.48
2018-12-13T17:21:27.280Z,99176.89
2018-12-13T17:23:55.911Z,99181.19
2018-12-13T17:26:24.746Z,99186.63
2018-12-13T17:28:53.127Z,99184.23
2018-12-13T17:31:21.517Z,99186.55
2018-12-13T17:33:50.298Z,99183.19
2018-12-13T17:36:18.789Z,99189.64
2018-12-13T17:38:47.203Z,99187.25
2018-12-13T17:41:15.638Z,99185.08
2018-12-13T17:43:44.200Z,99186.09
2018-12-13T17:46:12.529Z,99187.95
2018-12-13T17:48:40.949Z,99187.17
2018-12-13T17:51:09.367Z,99188.95
2018-12-13T17:53:37.753Z,99190.19
2018-12-13T17:56:06.152Z,99198.54
2018-12-13T17:58:34.452Z,99202.88
2018-12-13T18:01:02.800Z,99206.86
2018-12-13T18:03:31.159Z,99203.88
2018-12-13T18:05:59.585Z,99201.64
2018-12-13T18:08:27.942Z,99206.35
2018-12-13T18:10:56.266Z,99207.64
2018-12-13T18:13:24.545Z,99201.63
2018-12-13T18:15:53.059Z,99196.47
2018-12-13T18:18:21.482Z,99199.00
2018-12-13T18:20:50.304Z,99200.39
2018-12-13T18:23:18.668Z,99197.47
2018-12-13T18:25:46.957Z,99194.22
2018-12-13T18:28:15.372Z,99191.35
2018-12-13T18:30:43.823Z,99191.08
2018-12-13T18:33:12.226Z,99198.55
2018-12-13T18:35:40.593Z,99195.42
2018-12-13T18:38:08.942Z,99198.16
2018-12-13T18:40:37.318Z,99195.69
2018-12-13T18:43:05.798Z,99204.04
2018-12-13T18:45:37.210Z,99205.02
2018-12-13T18:48:06.093Z,99202.92
2018-12-13T18:50:35.038Z,99209.11
2018-12-13T18:53:03.649Z,99207.34
2018-12-13T18:55:32.210Z,99202.31
2018-12-13T18:58:01.031Z,99206.56
2018-12-13T19:00:29.452Z,99205.02
2018-12-13T19:02:59.469Z,99205.16
2018-12-13T19:05:46.912Z,99211.13
2018-12-13T19:11:22.817Z,99205.21
2018-12-13T19:13:51.149Z,99212.95
2018-12-13T19:16:19.592Z,99206.17
2018-12-13T19:18:47.900Z,99214.08
2018-12-13T19:21:16.335Z,99220.41
2018-12-13T19:23:44.683Z,99213.49
2018-12-13T19:26:13.009Z,99224.20
2018-12-13T19:28:41.682Z,99215.92
2018-12-13T19:31:10.074Z,99216.02
2018-12-13T19:33:38.513Z,99219.48
2018-12-13T19:36:08.285Z,99216.48
2018-12-13T19:38:38.881Z,99223.84
2018-12-13T19:41:07.871Z,99222.91
2018-12-13T19:43:37.070Z,99226.47
2018-12-13T19:46:06.396Z,99224.69
2018-12-13T19:48:35.572Z,99223.42
2018-12-13T19:51:04.906Z,99217.04
2018-12-13T19:53:33.377Z,99211.30
2018-12-13T19:56:01.798Z,99219.48
2018-12-13T19:58:30.351Z,99216.90
2018-12-13T20:00:58.736Z,99220.67
2018-12-13T20:03:27.104Z,99226.64
2018-12-13T20:05:55.829Z,99227.49
2018-12-13T20:08:24.286Z,99223.28
2018-12-13T20:10:54.774Z,99224.14
2018-12-13T20:13:23.278Z,99229.64
2018-12-13T20:15:51.647Z,99227.30
2018-12-13T20:18:20.072Z,99234.12
2018-12-13T20:20:48.661Z,99231.58
2018-12-13T20:23:17.177Z,99237.14
2018-12-13T20:25:45.653Z,99232.48
2018-12-13T20:28:14.774Z,99233.41
2018-12-13T20:30:43.160Z,99230.80
2018-12-13T20:33:11.540Z,99233.63
2018-12-13T20:35:39.812Z,99229.48
2018-12-13T20:38:08.418Z,99235.19
2018-12-13T20:40:36.938Z,99236.67
2018-12-13T20:43:06.211Z,99238.67
2018-12-13T20:45:35.658Z,99236.50
2018-12-13T20:48:04.052Z,99244.33
2018-12-13T20:50:32.443Z,99242.48
2018-12-13T20:53:00.735Z,99238.94
2018-12-13T20:55:29.209Z,99249.19
2018-12-13T20:57:57.503Z,99246.31
2018-12-13T21:00:26.107Z,99244.86
2018-12-13T21:02:54.413Z,99246.59
2018-12-13T21:05:23.750Z,99245.00
2018-12-13T21:07:54.211Z,99242.48
2018-12-13T21:10:22.548Z,99242.41
2018-12-13T21:12:51.076Z,99243.23
2018-12-13T21:15:19.392Z,99243.39
2018-12-13T21:17:47.887Z,99236.45
2018-12-13T21:20:16.229Z,99238.23
2018-12-13T21:22:44.744Z,99241.01
2018-12-13T21:25:13.179Z,99238.98
2018-12-13T21:27:41.575Z,99239.47
2018-12-13T21:30:10.177Z,99238.55
2018-12-13T21:32:38.711Z,99238.37
2018-12-13T21:35:07.808Z,99236.30
2018-12-13T21:37:36.237Z,99235.26
2018-12-13T21:40:04.996Z,99236.28
2018-12-13T21:42:33.488Z,99234.42
2018-12-13T21:45:01.882Z,99239.86
2018-12-13T21:47:30.333Z,99239.62
2018-12-13T21:49:58.713Z,99233.44
2018-12-13T21:52:27.175Z,99235.80
2018-12-13T21:54:55.564Z,99230.17
2018-12-13T21:57:24.048Z,99236.21
2018-12-13T21:59:52.488Z,99232.56
2018-12-13T22:02:21.014Z,99227.86
2018-12-13T22:04:49.345Z,99222.06
2018-12-13T22:07:17.753Z,99225.45
2018-12-13T22:09:46.133Z,99227.23
2018-12-13T22:12:14.645Z,99229.09
2018-12-13T22:14:43.025Z,99227.78
2018-12-13T22:17:11.357Z,99227.95
2018-12-13T22:19:39.866Z,99232.80
2018-12-13T22:22:08.212Z,99236.21
2018-12-13T22:24:36.628Z,99241.55
2018-12-13T22:27:04.979Z,99241.45
2018-12-13T22:29:33.365Z,99247.75
2018-12-13T22:32:02.057Z,99249.99
2018-12-13T22:34:30.739Z,99249.81
2018-12-13T22:36:59.457Z,99246.71
2018-12-13T22:39:27.789Z,99245.48
2018-12-13T22:41:56.142Z,99250.05
2018-12-13T22:44:24.549Z,99245.20
2018-12-13T22:46:53.010Z,99244.33
2018-12-13T22:49:21.529Z,99241.23
2018-12-13T22:51:49.977Z,99232.66
2018-12-13T22:54:18.293Z,99241.17
2018-12-13T22:56:46.581Z,99241.33
2018-12-13T22:59:14.945Z,99236.82
2018-12-13T23:01:43.267Z,99233.95
2018-12-13T23:04:11.690Z,99233.36
2018-12-13T23:06:40.138Z,99240.17
2018-12-13T23:09:08.648Z,99244.80
2018-12-13T23:11:37.177Z,99245.27
2018-12-13T23:14:05.668Z,99244.17
2018-12-13T23:16:35.096Z,99244.17
2018-12-13T23:19:03.473Z,99237.44
2018-12-13T23:21:31.782Z,99238.62
2018-12-13T23:24:00.133Z,99231.78
2018-12-13T23:26:28.408Z,99231.36
2018-12-13T23:28:57.633Z,99233.48
2018-12-13T23:31:26.065Z,99236.59
2018-12-13T23:33:54.391Z,99233.73
2018-12-13T23:36:22.725Z,99236.82
2018-12-13T23:38:51.113Z,99237.67
2018-12-13T23:41:19.405Z,99239.25
2018-12-13T23:43:47.755Z,99243.25
2018-12-13T23:46:16.075Z,99243.20
2018-12-13T23:48:44.367Z,99242.88
2018-12-13T23:51:12.709Z,99245.27
2018-12-13T23:53:41.076Z,99247.27
2018-12-13T23:56:09.577Z,99249.67
2018-12-13T23:58:38.179Z,99241.03
